sensor_id;sensor_type;location;lat;lon;timestamp;P1;durP1;ratioP1;P2;durP2;ratioP2
28682;SDS011;15862;43.062;25.626;2022-07-06T00:00:11;11.20;;;3.92;;
28682;SDS011;15862;43.062;25.626;2022-07-06T00:02:36;8.25;;;4.97;;
28682;SDS011;15862;43.062;25.626;2022-07-06T00:05:02;10.35;;;5.90;;
28682;SDS011;15862;43.062;25.626;2022-07-06T00:07:27;9.55;;;5.30;;
28682;SDS011;15862;43.062;25.626;2022-07-06T00:09:53;8.20;;;5.53;;
28682;SDS011;15862;43.062;25.626;2022-07-06T00:12:18;9.98;;;5.80;;
28682;SDS011;15862;43.062;25.626;2022-07-06T00:14:44;8.60;;;6.00;;
28682;SDS011;15862;43.062;25.626;2022-07-06T00:17:09;9.40;;;6.00;;
28682;SDS011;15862;43.062;25.626;2022-07-06T00:19:34;8.13;;;5.30;;
28682;SDS011;15862;43.062;25.626;2022-07-06T00:22:00;10.35;;;5.10;;
28682;SDS011;15862;43.062;25.626;2022-07-06T00:24:25;9.63;;;5.75;;
28682;SDS011;15862;43.062;25.626;2022-07-06T00:26:51;8.18;;;5.70;;
28682;SDS011;15862;43.062;25.626;2022-07-06T00:29:16;11.00;;;5.35;;
28682;SDS011;15862;43.062;25.626;2022-07-06T00:31:42;12.60;;;7.00;;
28682;SDS011;15862;43.062;25.626;2022-07-06T00:37:16;12.60;;;6.80;;
28682;SDS011;15862;43.062;25.626;2022-07-06T00:39:41;8.02;;;5.90;;
28682;SDS011;15862;43.062;25.626;2022-07-06T00:42:13;10.18;;;7.15;;
28682;SDS011;15862;43.062;25.626;2022-07-06T00:44:38;12.70;;;6.60;;
28682;SDS011;15862;43.062;25.626;2022-07-06T00:47:04;9.55;;;7.32;;
28682;SDS011;15862;43.062;25.626;2022-07-06T00:49:30;10.60;;;7.68;;
28682;SDS011;15862;43.062;25.626;2022-07-06T00:52:14;11.90;;;7.53;;
28682;SDS011;15862;43.062;25.626;2022-07-06T00:54:41;12.70;;;7.45;;
28682;SDS011;15862;43.062;25.626;2022-07-06T00:57:08;8.77;;;7.10;;
28682;SDS011;15862;43.062;25.626;2022-07-06T00:59:34;13.90;;;7.35;;
28682;SDS011;15862;43.062;25.626;2022-07-06T01:02:06;9.93;;;7.65;;
28682;SDS011;15862;43.062;25.626;2022-07-06T01:04:31;17.77;;;8.63;;
28682;SDS011;15862;43.062;25.626;2022-07-06T01:09:53;11.38;;;7.55;;
28682;SDS011;15862;43.062;25.626;2022-07-06T01:12:19;10.63;;;8.43;;
28682;SDS011;15862;43.062;25.626;2022-07-06T01:14:54;12.55;;;7.93;;
28682;SDS011;15862;43.062;25.626;2022-07-06T01:17:20;12.10;;;8.07;;
28682;SDS011;15862;43.062;25.626;2022-07-06T01:19:46;14.77;;;8.45;;
28682;SDS011;15862;43.062;25.626;2022-07-06T01:22:11;15.45;;;9.18;;
28682;SDS011;15862;43.062;25.626;2022-07-06T01:24:37;14.90;;;9.25;;
28682;SDS011;15862;43.062;25.626;2022-07-06T01:27:06;17.10;;;9.65;;
28682;SDS011;15862;43.062;25.626;2022-07-06T01:29:32;14.35;;;9.80;;
28682;SDS011;15862;43.062;25.626;2022-07-06T01:31:58;14.55;;;9.07;;
28682;SDS011;15862;43.062;25.626;2022-07-06T01:34:36;14.60;;;9.93;;
28682;SDS011;15862;43.062;25.626;2022-07-06T01:37:01;14.05;;;9.85;;
28682;SDS011;15862;43.062;25.626;2022-07-06T01:42:17;13.15;;;10.13;;
28682;SDS011;15862;43.062;25.626;2022-07-06T01:44:43;15.48;;;9.18;;
28682;SDS011;15862;43.062;25.626;2022-07-06T01:47:09;15.10;;;10.63;;
28682;SDS011;15862;43.062;25.626;2022-07-06T01:49:43;13.13;;;10.50;;
28682;SDS011;15862;43.062;25.626;2022-07-06T01:52:09;12.45;;;10.27;;
28682;SDS011;15862;43.062;25.626;2022-07-06T01:54:34;14.77;;;10.38;;
28682;SDS011;15862;43.062;25.626;2022-07-06T01:57:00;11.88;;;10.35;;
28682;SDS011;15862;43.062;25.626;2022-07-06T01:59:25;16.83;;;11.23;;
28682;SDS011;15862;43.062;25.626;2022-07-06T02:01:51;15.38;;;10.68;;
28682;SDS011;15862;43.062;25.626;2022-07-06T02:04:16;14.55;;;10.70;;
28682;SDS011;15862;43.062;25.626;2022-07-06T02:06:51;17.08;;;10.70;;
28682;SDS011;15862;43.062;25.626;2022-07-06T02:09:16;15.50;;;11.00;;
28682;SDS011;15862;43.062;25.626;2022-07-06T02:11:42;13.02;;;11.02;;
28682;SDS011;15862;43.062;25.626;2022-07-06T02:14:08;14.82;;;10.75;;
28682;SDS011;15862;43.062;25.626;2022-07-06T02:16:33;17.30;;;10.77;;
28682;SDS011;15862;43.062;25.626;2022-07-06T02:18:59;12.93;;;10.15;;
28682;SDS011;15862;43.062;25.626;2022-07-06T02:21:25;13.95;;;11.55;;
28682;SDS011;15862;43.062;25.626;2022-07-06T02:23:50;14.73;;;10.57;;
28682;SDS011;15862;43.062;25.626;2022-07-06T02:26:16;13.52;;;10.07;;
28682;SDS011;15862;43.062;25.626;2022-07-06T02:28:41;11.95;;;10.00;;
28682;SDS011;15862;43.062;25.626;2022-07-06T02:31:06;12.45;;;10.75;;
28682;SDS011;15862;43.062;25.626;2022-07-06T02:33:32;17.13;;;10.43;;
28682;SDS011;15862;43.062;25.626;2022-07-06T02:35:57;16.80;;;10.93;;
28682;SDS011;15862;43.062;25.626;2022-07-06T02:38:23;16.38;;;11.07;;
28682;SDS011;15862;43.062;25.626;2022-07-06T02:40:48;15.65;;;11.00;;
28682;SDS011;15862;43.062;25.626;2022-07-06T02:43:14;20.33;;;11.73;;
28682;SDS011;15862;43.062;25.626;2022-07-06T02:45:39;14.55;;;10.05;;
28682;SDS011;15862;43.062;25.626;2022-07-06T02:48:04;15.85;;;10.57;;
28682;SDS011;15862;43.062;25.626;2022-07-06T02:50:30;18.73;;;11.82;;
28682;SDS011;15862;43.062;25.626;2022-07-06T02:52:56;14.10;;;10.80;;
28682;SDS011;15862;43.062;25.626;2022-07-06T02:55:23;11.32;;;9.82;;
28682;SDS011;15862;43.062;25.626;2022-07-06T02:57:49;15.50;;;11.35;;
28682;SDS011;15862;43.062;25.626;2022-07-06T03:00:14;14.88;;;10.55;;
28682;SDS011;15862;43.062;25.626;2022-07-06T03:02:40;18.08;;;11.07;;
28682;SDS011;15862;43.062;25.626;2022-07-06T03:05:05;14.57;;;10.57;;
28682;SDS011;15862;43.062;25.626;2022-07-06T03:07:31;15.32;;;10.38;;
28682;SDS011;15862;43.062;25.626;2022-07-06T03:09:56;19.23;;;9.75;;
28682;SDS011;15862;43.062;25.626;2022-07-06T03:12:22;12.13;;;10.10;;
28682;SDS011;15862;43.062;25.626;2022-07-06T03:14:47;12.65;;;10.68;;
28682;SDS011;15862;43.062;25.626;2022-07-06T03:17:13;14.20;;;10.07;;
28682;SDS011;15862;43.062;25.626;2022-07-06T03:19:38;21.15;;;10.50;;
28682;SDS011;15862;43.062;25.626;2022-07-06T03:22:04;10.88;;;9.57;;
28682;SDS011;15862;43.062;25.626;2022-07-06T03:24:29;22.50;;;11.57;;
28682;SDS011;15862;43.062;25.626;2022-07-06T03:26:55;15.57;;;11.23;;
28682;SDS011;15862;43.062;25.626;2022-07-06T03:29:20;12.15;;;10.82;;
28682;SDS011;15862;43.062;25.626;2022-07-06T03:31:46;15.82;;;10.00;;
28682;SDS011;15862;43.062;25.626;2022-07-06T03:34:11;12.50;;;9.35;;
28682;SDS011;15862;43.062;25.626;2022-07-06T03:36:37;13.88;;;10.32;;
28682;SDS011;15862;43.062;25.626;2022-07-06T03:39:03;16.02;;;10.48;;
28682;SDS011;15862;43.062;25.626;2022-07-06T03:41:28;13.68;;;11.40;;
28682;SDS011;15862;43.062;25.626;2022-07-06T03:43:54;13.10;;;10.80;;
28682;SDS011;15862;43.062;25.626;2022-07-06T03:46:19;13.45;;;10.20;;
28682;SDS011;15862;43.062;25.626;2022-07-06T03:48:45;15.30;;;10.25;;
28682;SDS011;15862;43.062;25.626;2022-07-06T03:51:10;12.20;;;9.50;;
28682;SDS011;15862;43.062;25.626;2022-07-06T03:53:36;11.80;;;9.63;;
28682;SDS011;15862;43.062;25.626;2022-07-06T03:56:02;13.95;;;10.23;;
28682;SDS011;15862;43.062;25.626;2022-07-06T03:58:46;15.27;;;10.45;;
28682;SDS011;15862;43.062;25.626;2022-07-06T04:01:11;13.18;;;10.40;;
28682;SDS011;15862;43.062;25.626;2022-07-06T04:03:37;20.10;;;9.70;;
28682;SDS011;15862;43.062;25.626;2022-07-06T04:06:02;12.90;;;9.65;;
28682;SDS011;15862;43.062;25.626;2022-07-06T04:08:28;13.95;;;10.00;;
28682;SDS011;15862;43.062;25.626;2022-07-06T04:10:53;17.33;;;10.38;;
28682;SDS011;15862;43.062;25.626;2022-07-06T04:13:18;14.70;;;10.68;;
28682;SDS011;15862;43.062;25.626;2022-07-06T04:15:44;14.02;;;10.48;;
28682;SDS011;15862;43.062;25.626;2022-07-06T04:18:09;16.10;;;11.48;;
28682;SDS011;15862;43.062;25.626;2022-07-06T04:20:35;21.10;;;12.35;;
28682;SDS011;15862;43.062;25.626;2022-07-06T04:23:00;18.90;;;12.43;;
28682;SDS011;15862;43.062;25.626;2022-07-06T04:25:26;19.00;;;13.25;;
28682;SDS011;15862;43.062;25.626;2022-07-06T04:27:51;21.05;;;14.48;;
28682;SDS011;15862;43.062;25.626;2022-07-06T04:30:17;20.95;;;13.80;;
28682;SDS011;15862;43.062;25.626;2022-07-06T04:32:42;27.23;;;13.35;;
28682;SDS011;15862;43.062;25.626;2022-07-06T04:35:08;19.40;;;14.50;;
28682;SDS011;15862;43.062;25.626;2022-07-06T04:37:34;23.15;;;13.45;;
28682;SDS011;15862;43.062;25.626;2022-07-06T04:39:59;17.75;;;13.65;;
28682;SDS011;15862;43.062;25.626;2022-07-06T04:42:25;18.13;;;11.38;;
28682;SDS011;15862;43.062;25.626;2022-07-06T04:44:50;13.20;;;11.75;;
28682;SDS011;15862;43.062;25.626;2022-07-06T04:47:16;13.55;;;9.40;;
28682;SDS011;15862;43.062;25.626;2022-07-06T04:49:42;17.10;;;10.77;;
28682;SDS011;15862;43.062;25.626;2022-07-06T04:52:07;17.63;;;11.02;;
28682;SDS011;15862;43.062;25.626;2022-07-06T04:54:33;16.83;;;10.02;;
28682;SDS011;15862;43.062;25.626;2022-07-06T04:56:58;12.25;;;8.70;;
28682;SDS011;15862;43.062;25.626;2022-07-06T04:59:24;14.73;;;10.13;;
28682;SDS011;15862;43.062;25.626;2022-07-06T05:01:49;15.35;;;9.75;;
28682;SDS011;15862;43.062;25.626;2022-07-06T05:04:14;10.98;;;9.55;;
28682;SDS011;15862;43.062;25.626;2022-07-06T05:06:43;15.30;;;9.00;;
28682;SDS011;15862;43.062;25.626;2022-07-06T05:09:08;12.73;;;9.43;;
28682;SDS011;15862;43.062;25.626;2022-07-06T05:11:34;14.40;;;9.70;;
28682;SDS011;15862;43.062;25.626;2022-07-06T05:13:59;9.77;;;8.57;;
28682;SDS011;15862;43.062;25.626;2022-07-06T05:16:25;13.32;;;8.35;;
28682;SDS011;15862;43.062;25.626;2022-07-06T05:18:50;16.00;;;8.23;;
28682;SDS011;15862;43.062;25.626;2022-07-06T05:21:15;32.65;;;9.38;;
28682;SDS011;15862;43.062;25.626;2022-07-06T05:23:41;23.40;;;9.02;;
28682;SDS011;15862;43.062;25.626;2022-07-06T05:26:06;7.90;;;7.15;;
28682;SDS011;15862;43.062;25.626;2022-07-06T05:28:32;26.33;;;9.55;;
28682;SDS011;15862;43.062;25.626;2022-07-06T05:30:57;10.00;;;7.20;;
28682;SDS011;15862;43.062;25.626;2022-07-06T05:33:23;8.77;;;5.75;;
28682;SDS011;15862;43.062;25.626;2022-07-06T05:35:48;8.73;;;7.82;;
28682;SDS011;15862;43.062;25.626;2022-07-06T05:38:14;8.77;;;7.85;;
28682;SDS011;15862;43.062;25.626;2022-07-06T05:40:39;28.15;;;9.32;;
28682;SDS011;15862;43.062;25.626;2022-07-06T05:43:05;8.90;;;6.82;;
28682;SDS011;15862;43.062;25.626;2022-07-06T05:45:30;10.57;;;7.68;;
28682;SDS011;15862;43.062;25.626;2022-07-06T05:47:56;25.75;;;10.73;;
28682;SDS011;15862;43.062;25.626;2022-07-06T05:50:40;19.70;;;12.77;;
28682;SDS011;15862;43.062;25.626;2022-07-06T05:53:05;14.95;;;12.00;;
28682;SDS011;15862;43.062;25.626;2022-07-06T05:55:32;16.48;;;9.93;;
28682;SDS011;15862;43.062;25.626;2022-07-06T05:57:57;9.25;;;6.63;;
28682;SDS011;15862;43.062;25.626;2022-07-06T06:00:23;14.48;;;9.60;;
28682;SDS011;15862;43.062;25.626;2022-07-06T06:02:50;18.98;;;6.20;;
28682;SDS011;15862;43.062;25.626;2022-07-06T06:05:16;13.70;;;5.93;;
28682;SDS011;15862;43.062;25.626;2022-07-06T06:07:43;10.63;;;5.88;;
28682;SDS011;15862;43.062;25.626;2022-07-06T06:10:11;9.52;;;6.35;;
28682;SDS011;15862;43.062;25.626;2022-07-06T06:12:37;7.72;;;5.80;;
28682;SDS011;15862;43.062;25.626;2022-07-06T06:15:04;12.02;;;6.00;;
28682;SDS011;15862;43.062;25.626;2022-07-06T06:17:30;8.93;;;5.05;;
28682;SDS011;15862;43.062;25.626;2022-07-06T06:19:57;11.73;;;5.95;;
28682;SDS011;15862;43.062;25.626;2022-07-06T06:22:22;13.50;;;6.10;;
28682;SDS011;15862;43.062;25.626;2022-07-06T06:24:48;6.13;;;5.18;;
28682;SDS011;15862;43.062;25.626;2022-07-06T06:27:14;7.43;;;5.55;;
28682;SDS011;15862;43.062;25.626;2022-07-06T06:29:39;10.40;;;5.47;;
28682;SDS011;15862;43.062;25.626;2022-07-06T06:32:06;9.45;;;5.22;;
28682;SDS011;15862;43.062;25.626;2022-07-06T06:34:32;17.33;;;6.30;;
28682;SDS011;15862;43.062;25.626;2022-07-06T06:36:57;11.60;;;7.72;;
28682;SDS011;15862;43.062;25.626;2022-07-06T06:39:23;7.38;;;6.68;;
28682;SDS011;15862;43.062;25.626;2022-07-06T06:41:49;8.18;;;6.28;;
28682;SDS011;15862;43.062;25.626;2022-07-06T06:44:14;15.77;;;7.78;;
28682;SDS011;15862;43.062;25.626;2022-07-06T06:46:40;12.90;;;6.35;;
28682;SDS011;15862;43.062;25.626;2022-07-06T06:49:06;11.57;;;9.43;;
28682;SDS011;15862;43.062;25.626;2022-07-06T06:51:32;12.38;;;11.15;;
28682;SDS011;15862;43.062;25.626;2022-07-06T06:53:58;11.52;;;8.75;;
28682;SDS011;15862;43.062;25.626;2022-07-06T06:56:24;8.60;;;6.63;;
28682;SDS011;15862;43.062;25.626;2022-07-06T06:58:50;9.27;;;6.03;;
28682;SDS011;15862;43.062;25.626;2022-07-06T07:01:15;8.02;;;6.07;;
28682;SDS011;15862;43.062;25.626;2022-07-06T07:03:41;6.10;;;5.47;;
28682;SDS011;15862;43.062;25.626;2022-07-06T07:06:06;7.22;;;5.75;;
28682;SDS011;15862;43.062;25.626;2022-07-06T07:08:32;12.43;;;6.10;;
28682;SDS011;15862;43.062;25.626;2022-07-06T07:10:57;14.50;;;6.05;;
28682;SDS011;15862;43.062;25.626;2022-07-06T07:13:23;10.25;;;6.50;;
28682;SDS011;15862;43.062;25.626;2022-07-06T07:15:48;12.30;;;5.93;;
28682;SDS011;15862;43.062;25.626;2022-07-06T07:18:14;15.18;;;7.47;;
28682;SDS011;15862;43.062;25.626;2022-07-06T07:20:39;6.72;;;6.05;;
28682;SDS011;15862;43.062;25.626;2022-07-06T07:23:05;7.05;;;5.65;;
28682;SDS011;15862;43.062;25.626;2022-07-06T07:25:30;8.68;;;6.88;;
28682;SDS011;15862;43.062;25.626;2022-07-06T07:27:56;9.60;;;6.13;;
28682;SDS011;15862;43.062;25.626;2022-07-06T07:30:21;9.65;;;8.18;;
28682;SDS011;15862;43.062;25.626;2022-07-06T07:32:47;12.73;;;10.20;;
28682;SDS011;15862;43.062;25.626;2022-07-06T07:35:12;9.98;;;8.00;;
28682;SDS011;15862;43.062;25.626;2022-07-06T07:37:38;8.85;;;6.88;;
28682;SDS011;15862;43.062;25.626;2022-07-06T07:40:04;12.90;;;7.88;;
28682;SDS011;15862;43.062;25.626;2022-07-06T07:42:30;19.13;;;7.82;;
28682;SDS011;15862;43.062;25.626;2022-07-06T07:44:56;23.00;;;8.65;;
28682;SDS011;15862;43.062;25.626;2022-07-06T07:47:21;83.45;;;17.23;;
28682;SDS011;15862;43.062;25.626;2022-07-06T07:49:47;8.68;;;6.25;;
28682;SDS011;15862;43.062;25.626;2022-07-06T07:52:12;10.90;;;7.22;;
28682;SDS011;15862;43.062;25.626;2022-07-06T07:54:38;13.50;;;7.72;;
28682;SDS011;15862;43.062;25.626;2022-07-06T07:57:03;12.57;;;7.32;;
28682;SDS011;15862;43.062;25.626;2022-07-06T07:59:29;20.30;;;7.20;;
28682;SDS011;15862;43.062;25.626;2022-07-06T08:01:55;15.63;;;8.40;;
28682;SDS011;15862;43.062;25.626;2022-07-06T08:04:20;14.10;;;8.82;;
28682;SDS011;15862;43.062;25.626;2022-07-06T08:06:46;17.27;;;9.40;;
28682;SDS011;15862;43.062;25.626;2022-07-06T08:09:12;13.85;;;7.72;;
28682;SDS011;15862;43.062;25.626;2022-07-06T08:11:37;9.68;;;7.00;;
28682;SDS011;15862;43.062;25.626;2022-07-06T08:14:03;12.05;;;7.57;;
28682;SDS011;15862;43.062;25.626;2022-07-06T08:16:29;13.00;;;7.00;;
28682;SDS011;15862;43.062;25.626;2022-07-06T08:18:55;13.40;;;6.78;;
28682;SDS011;15862;43.062;25.626;2022-07-06T08:21:20;10.35;;;7.90;;
28682;SDS011;15862;43.062;25.626;2022-07-06T08:23:46;14.90;;;7.35;;
28682;SDS011;15862;43.062;25.626;2022-07-06T08:26:12;10.35;;;5.95;;
28682;SDS011;15862;43.062;25.626;2022-07-06T08:28:38;9.20;;;6.97;;
28682;SDS011;15862;43.062;25.626;2022-07-06T08:31:03;13.10;;;7.95;;
28682;SDS011;15862;43.062;25.626;2022-07-06T08:33:29;8.40;;;6.93;;
28682;SDS011;15862;43.062;25.626;2022-07-06T08:35:54;8.75;;;6.10;;
28682;SDS011;15862;43.062;25.626;2022-07-06T08:38:20;8.73;;;5.70;;
28682;SDS011;15862;43.062;25.626;2022-07-06T08:40:46;8.25;;;6.20;;
28682;SDS011;15862;43.062;25.626;2022-07-06T08:43:13;8.75;;;6.75;;
28682;SDS011;15862;43.062;25.626;2022-07-06T08:45:40;12.55;;;7.05;;
28682;SDS011;15862;43.062;25.626;2022-07-06T08:48:08;9.32;;;7.03;;
28682;SDS011;15862;43.062;25.626;2022-07-06T08:50:35;7.38;;;6.43;;
28682;SDS011;15862;43.062;25.626;2022-07-06T08:53:01;10.52;;;7.32;;
28682;SDS011;15862;43.062;25.626;2022-07-06T08:55:27;11.73;;;9.23;;
28682;SDS011;15862;43.062;25.626;2022-07-06T08:57:53;11.68;;;8.20;;
28682;SDS011;15862;43.062;25.626;2022-07-06T09:00:20;11.40;;;6.68;;
28682;SDS011;15862;43.062;25.626;2022-07-06T09:02:46;7.78;;;6.07;;
28682;SDS011;15862;43.062;25.626;2022-07-06T09:05:16;9.73;;;6.40;;
28682;SDS011;15862;43.062;25.626;2022-07-06T09:07:42;9.65;;;5.90;;
28682;SDS011;15862;43.062;25.626;2022-07-06T09:10:10;7.28;;;5.75;;
28682;SDS011;15862;43.062;25.626;2022-07-06T09:12:36;10.05;;;5.28;;
28682;SDS011;15862;43.062;25.626;2022-07-06T09:15:02;5.22;;;4.45;;
28682;SDS011;15862;43.062;25.626;2022-07-06T09:17:28;7.10;;;5.07;;
28682;SDS011;15862;43.062;25.626;2022-07-06T09:19:54;5.38;;;4.88;;
28682;SDS011;15862;43.062;25.626;2022-07-06T09:22:27;6.72;;;5.03;;
28682;SDS011;15862;43.062;25.626;2022-07-06T09:25:13;21.30;;;5.35;;
28682;SDS011;15862;43.062;25.626;2022-07-06T09:27:41;8.93;;;5.32;;
28682;SDS011;15862;43.062;25.626;2022-07-06T09:30:09;10.32;;;5.35;;
28682;SDS011;15862;43.062;25.626;2022-07-06T09:32:54;6.47;;;5.20;;
28682;SDS011;15862;43.062;25.626;2022-07-06T09:35:22;9.35;;;5.32;;
28682;SDS011;15862;43.062;25.626;2022-07-06T09:38:26;7.07;;;4.82;;
28682;SDS011;15862;43.062;25.626;2022-07-06T09:40:45;11.55;;;5.55;;
28682;SDS011;15862;43.062;25.626;2022-07-06T09:43:12;5.70;;;5.13;;
28682;SDS011;15862;43.062;25.626;2022-07-06T09:45:40;7.07;;;4.50;;
28682;SDS011;15862;43.062;25.626;2022-07-06T09:48:14;8.30;;;5.13;;
28682;SDS011;15862;43.062;25.626;2022-07-06T09:50:46;7.57;;;5.50;;
28682;SDS011;15862;43.062;25.626;2022-07-06T09:53:14;17.80;;;8.60;;
28682;SDS011;15862;43.062;25.626;2022-07-06T09:55:47;23.80;;;9.48;;
28682;SDS011;15862;43.062;25.626;2022-07-06T09:58:16;8.27;;;6.20;;
28682;SDS011;15862;43.062;25.626;2022-07-06T10:00:43;11.75;;;8.10;;
28682;SDS011;15862;43.062;25.626;2022-07-06T10:03:09;11.18;;;7.85;;
28682;SDS011;15862;43.062;25.626;2022-07-06T10:05:43;18.33;;;8.65;;
28682;SDS011;15862;43.062;25.626;2022-07-06T10:08:12;11.80;;;5.60;;
28682;SDS011;15862;43.062;25.626;2022-07-06T10:10:38;10.80;;;6.15;;
28682;SDS011;15862;43.062;25.626;2022-07-06T10:13:05;13.95;;;5.95;;
28682;SDS011;15862;43.062;25.626;2022-07-06T10:15:32;20.10;;;6.45;;
28682;SDS011;15862;43.062;25.626;2022-07-06T10:18:02;20.25;;;5.35;;
28682;SDS011;15862;43.062;25.626;2022-07-06T10:20:30;18.70;;;5.85;;
28682;SDS011;15862;43.062;25.626;2022-07-06T10:23:00;29.08;;;5.97;;
28682;SDS011;15862;43.062;25.626;2022-07-06T10:25:27;12.70;;;5.47;;
28682;SDS011;15862;43.062;25.626;2022-07-06T10:27:53;23.30;;;7.07;;
28682;SDS011;15862;43.062;25.626;2022-07-06T10:30:20;13.05;;;4.85;;
28682;SDS011;15862;43.062;25.626;2022-07-06T10:32:47;19.05;;;5.47;;
28682;SDS011;15862;43.062;25.626;2022-07-06T10:35:15;39.20;;;7.28;;
28682;SDS011;15862;43.062;25.626;2022-07-06T10:37:43;12.55;;;5.75;;
28682;SDS011;15862;43.062;25.626;2022-07-06T10:40:09;17.13;;;6.63;;
28682;SDS011;15862;43.062;25.626;2022-07-06T10:42:58;40.83;;;8.70;;
28682;SDS011;15862;43.062;25.626;2022-07-06T10:50:50;13.85;;;5.38;;
28682;SDS011;15862;43.062;25.626;2022-07-06T10:53:24;13.52;;;6.00;;
28682;SDS011;15862;43.062;25.626;2022-07-06T11:01:05;22.35;;;8.93;;
28682;SDS011;15862;43.062;25.626;2022-07-06T11:03:36;16.85;;;5.78;;
28682;SDS011;15862;43.062;25.626;2022-07-06T11:06:07;23.52;;;8.98;;
28682;SDS011;15862;43.062;25.626;2022-07-06T11:13:59;38.35;;;7.65;;
28682;SDS011;15862;43.062;25.626;2022-07-06T11:16:30;13.45;;;6.32;;
28682;SDS011;15862;43.062;25.626;2022-07-06T11:21:40;14.60;;;8.60;;
28682;SDS011;15862;43.062;25.626;2022-07-06T11:24:15;6.28;;;5.22;;
28682;SDS011;15862;43.062;25.626;2022-07-06T11:26:43;6.38;;;5.40;;
28682;SDS011;15862;43.062;25.626;2022-07-06T11:29:11;19.80;;;5.60;;
28682;SDS011;15862;43.062;25.626;2022-07-06T11:31:38;22.25;;;5.60;;
28682;SDS011;15862;43.062;25.626;2022-07-06T11:34:06;30.50;;;5.97;;
28682;SDS011;15862;43.062;25.626;2022-07-06T11:36:33;18.13;;;6.55;;
28682;SDS011;15862;43.062;25.626;2022-07-06T11:39:00;18.38;;;6.93;;
28682;SDS011;15862;43.062;25.626;2022-07-06T11:41:25;6.93;;;5.30;;
28682;SDS011;15862;43.062;25.626;2022-07-06T11:43:51;22.88;;;6.63;;
28682;SDS011;15862;43.062;25.626;2022-07-06T11:46:18;15.30;;;5.68;;
28682;SDS011;15862;43.062;25.626;2022-07-06T11:48:47;13.75;;;4.63;;
28682;SDS011;15862;43.062;25.626;2022-07-06T11:51:13;10.70;;;5.15;;
28682;SDS011;15862;43.062;25.626;2022-07-06T11:53:47;16.10;;;5.95;;
28682;SDS011;15862;43.062;25.626;2022-07-06T11:56:15;13.05;;;5.30;;
28682;SDS011;15862;43.062;25.626;2022-07-06T11:58:41;19.48;;;6.13;;
28682;SDS011;15862;43.062;25.626;2022-07-06T12:01:10;8.65;;;5.03;;
28682;SDS011;15862;43.062;25.626;2022-07-06T12:03:36;18.80;;;9.13;;
28682;SDS011;15862;43.062;25.626;2022-07-06T12:06:02;13.80;;;5.63;;
28682;SDS011;15862;43.062;25.626;2022-07-06T12:08:32;28.42;;;8.05;;
28682;SDS011;15862;43.062;25.626;2022-07-06T12:11:06;24.75;;;14.82;;
28682;SDS011;15862;43.062;25.626;2022-07-06T12:13:35;21.63;;;6.78;;
28682;SDS011;15862;43.062;25.626;2022-07-06T12:16:10;19.30;;;8.18;;
28682;SDS011;15862;43.062;25.626;2022-07-06T12:18:37;11.23;;;6.88;;
28682;SDS011;15862;43.062;25.626;2022-07-06T12:21:06;14.02;;;4.70;;
28682;SDS011;15862;43.062;25.626;2022-07-06T12:23:39;9.32;;;7.25;;
28682;SDS011;15862;43.062;25.626;2022-07-06T12:26:06;10.75;;;7.15;;
28682;SDS011;15862;43.062;25.626;2022-07-06T12:28:33;10.20;;;5.68;;
28682;SDS011;15862;43.062;25.626;2022-07-06T12:30:58;8.40;;;6.10;;
28682;SDS011;15862;43.062;25.626;2022-07-06T12:33:23;19.85;;;7.18;;
28682;SDS011;15862;43.062;25.626;2022-07-06T12:35:49;12.50;;;6.53;;
28682;SDS011;15862;43.062;25.626;2022-07-06T12:38:27;9.77;;;6.07;;
28682;SDS011;15862;43.062;25.626;2022-07-06T12:40:54;15.65;;;8.73;;
28682;SDS011;15862;43.062;25.626;2022-07-06T12:43:38;14.70;;;6.60;;
28682;SDS011;15862;43.062;25.626;2022-07-06T12:49:04;16.08;;;9.27;;
28682;SDS011;15862;43.062;25.626;2022-07-06T12:54:31;21.63;;;7.28;;
28682;SDS011;15862;43.062;25.626;2022-07-06T12:57:14;11.18;;;6.45;;
28682;SDS011;15862;43.062;25.626;2022-07-06T13:00:01;7.88;;;7.05;;
28682;SDS011;15862;43.062;25.626;2022-07-06T13:02:30;14.30;;;7.10;;
28682;SDS011;15862;43.062;25.626;2022-07-06T13:04:59;11.85;;;8.35;;
28682;SDS011;15862;43.062;25.626;2022-07-06T13:07:27;9.77;;;6.85;;
28682;SDS011;15862;43.062;25.626;2022-07-06T13:09:54;13.82;;;6.70;;
28682;SDS011;15862;43.062;25.626;2022-07-06T13:12:20;14.40;;;7.90;;
28682;SDS011;15862;43.062;25.626;2022-07-06T13:14:46;9.00;;;6.63;;
28682;SDS011;15862;43.062;25.626;2022-07-06T13:17:12;7.78;;;6.53;;
28682;SDS011;15862;43.062;25.626;2022-07-06T13:19:38;7.57;;;6.78;;
28682;SDS011;15862;43.062;25.626;2022-07-06T13:22:03;10.82;;;7.68;;
28682;SDS011;15862;43.062;25.626;2022-07-06T13:24:29;10.38;;;8.38;;
28682;SDS011;15862;43.062;25.626;2022-07-06T13:26:55;10.27;;;7.65;;
28682;SDS011;15862;43.062;25.626;2022-07-06T13:29:21;11.55;;;7.13;;
28682;SDS011;15862;43.062;25.626;2022-07-06T13:31:46;16.05;;;7.78;;
28682;SDS011;15862;43.062;25.626;2022-07-06T13:34:12;16.08;;;8.35;;
28682;SDS011;15862;43.062;25.626;2022-07-06T13:36:38;13.05;;;9.35;;
28682;SDS011;15862;43.062;25.626;2022-07-06T13:39:05;9.63;;;7.50;;
28682;SDS011;15862;43.062;25.626;2022-07-06T13:41:30;12.88;;;8.23;;
28682;SDS011;15862;43.062;25.626;2022-07-06T13:43:56;11.07;;;7.50;;
28682;SDS011;15862;43.062;25.626;2022-07-06T13:46:22;11.23;;;7.88;;
28682;SDS011;15862;43.062;25.626;2022-07-06T13:48:48;12.15;;;10.00;;
28682;SDS011;15862;43.062;25.626;2022-07-06T13:51:13;14.48;;;10.05;;
28682;SDS011;15862;43.062;25.626;2022-07-06T13:53:39;14.85;;;9.52;;
28682;SDS011;15862;43.062;25.626;2022-07-06T13:56:04;13.70;;;8.10;;
28682;SDS011;15862;43.062;25.626;2022-07-06T13:58:30;13.35;;;8.57;;
28682;SDS011;15862;43.062;25.626;2022-07-06T14:00:56;15.45;;;13.85;;
28682;SDS011;15862;43.062;25.626;2022-07-06T14:03:21;37.70;;;11.05;;
28682;SDS011;15862;43.062;25.626;2022-07-06T14:05:52;10.90;;;8.45;;
28682;SDS011;15862;43.062;25.626;2022-07-06T14:08:19;16.38;;;9.93;;
28682;SDS011;15862;43.062;25.626;2022-07-06T14:10:45;15.75;;;9.23;;
28682;SDS011;15862;43.062;25.626;2022-07-06T14:13:10;9.30;;;8.30;;
28682;SDS011;15862;43.062;25.626;2022-07-06T14:15:36;16.58;;;8.98;;
28682;SDS011;15862;43.062;25.626;2022-07-06T14:18:01;17.00;;;8.95;;
28682;SDS011;15862;43.062;25.626;2022-07-06T14:20:26;12.10;;;8.75;;
28682;SDS011;15862;43.062;25.626;2022-07-06T14:22:52;10.65;;;9.18;;
28682;SDS011;15862;43.062;25.626;2022-07-06T14:25:17;12.02;;;8.85;;
28682;SDS011;15862;43.062;25.626;2022-07-06T14:27:43;9.10;;;7.82;;
28682;SDS011;15862;43.062;25.626;2022-07-06T14:30:09;10.02;;;8.77;;
28682;SDS011;15862;43.062;25.626;2022-07-06T14:32:35;9.80;;;8.10;;
28682;SDS011;15862;43.062;25.626;2022-07-06T14:35:00;8.57;;;7.47;;
28682;SDS011;15862;43.062;25.626;2022-07-06T14:37:25;8.30;;;7.20;;
28682;SDS011;15862;43.062;25.626;2022-07-06T14:39:51;10.18;;;8.73;;
28682;SDS011;15862;43.062;25.626;2022-07-06T14:42:16;12.85;;;9.07;;
28682;SDS011;15862;43.062;25.626;2022-07-06T14:44:42;16.15;;;10.15;;
28682;SDS011;15862;43.062;25.626;2022-07-06T14:47:07;14.30;;;9.55;;
28682;SDS011;15862;43.062;25.626;2022-07-06T14:49:32;13.43;;;10.68;;
28682;SDS011;15862;43.062;25.626;2022-07-06T14:51:58;16.42;;;11.23;;